createdAt,value
2022-09-02T00:00:12.819Z,17.25
2022-09-02T00:02:47.107Z,17.20
2022-09-02T00:05:14.185Z,17.20
2022-09-02T00:07:47.010Z,17.23
2022-09-02T00:10:13.798Z,17.25
2022-09-02T00:12:47.025Z,17.22
2022-09-02T00:15:13.729Z,17.21
2022-09-02T00:17:46.996Z,17.19
2022-09-02T00:20:14.098Z,17.19
2022-09-02T00:22:48.023Z,17.12
2022-09-02T00:25:20.992Z,17.10
2022-09-02T00:27:47.915Z,17.07
2022-09-02T00:30:27.998Z,17.02
2022-09-02T00:32:54.638Z,16.97
2022-09-02T00:35:28.008Z,16.98
2022-09-02T00:38:00.991Z,16.93
2022-09-02T00:40:29.090Z,16.87
2022-09-02T00:43:03.008Z,16.88
2022-09-02T00:45:36.072Z,16.86
2022-09-02T00:48:02.956Z,16.82
2022-09-02T00:50:34.200Z,16.79
2022-09-02T00:53:14.053Z,16.79
2022-09-02T00:55:45.035Z,16.75
2022-09-02T00:58:31.991Z,16.72
2022-09-02T01:01:00.330Z,16.67
2022-09-02T01:03:36.992Z,16.57
2022-09-02T01:06:03.694Z,16.59
2022-09-02T01:08:40.991Z,16.59
2022-09-02T01:11:11.194Z,16.56
2022-09-02T01:13:48.985Z,16.55
2022-09-02T01:16:39.641Z,16.43
2022-09-02T01:19:20.980Z,16.35
2022-09-02T01:21:50.246Z,16.35
2022-09-02T01:24:26.003Z,16.25
2022-09-02T01:27:01.000Z,16.17
2022-09-02T01:29:41.101Z,16.17
2022-09-02T01:32:16.817Z,16.21
2022-09-02T01:34:49.999Z,16.17
2022-09-02T01:37:17.351Z,16.19
2022-09-02T01:39:51.961Z,16.16
2022-09-02T01:42:19.924Z,16.16
2022-09-02T01:44:52.977Z,16.10
2022-09-02T01:47:22.751Z,16.12
2022-09-02T01:49:56.968Z,16.04
2022-09-02T01:52:31.958Z,16.07
2022-09-02T01:55:05.988Z,16.01
2022-09-02T01:57:32.838Z,16.02
2022-09-02T02:00:01.356Z,16.03
2022-09-02T02:02:34.989Z,15.98
2022-09-02T02:05:01.987Z,15.94
2022-09-02T02:07:35.011Z,15.98
2022-09-02T02:10:02.375Z,15.97
2022-09-02T02:12:29.149Z,15.95
2022-09-02T02:15:01.990Z,15.94
2022-09-02T02:17:35.962Z,15.80
2022-09-02T02:20:03.841Z,15.83
2022-09-02T02:22:37.981Z,15.81
2022-09-02T02:25:06.570Z,15.81
2022-09-02T02:27:39.981Z,15.82
2022-09-02T02:30:24.960Z,15.80
2022-09-02T02:32:58.143Z,15.80
2022-09-02T02:35:30.983Z,15.74
2022-09-02T02:37:57.972Z,15.74
2022-09-02T02:40:36.089Z,15.69
2022-09-02T02:43:03.814Z,15.64
2022-09-02T02:45:36.978Z,15.60
2022-09-02T02:48:03.996Z,15.59
2022-09-02T02:50:36.976Z,15.61
2022-09-02T02:53:03.914Z,15.61
2022-09-02T02:55:36.957Z,15.63
2022-09-02T02:58:03.647Z,15.59
2022-09-02T03:00:38.975Z,15.55
2022-09-02T03:03:09.011Z,15.52
2022-09-02T03:05:43.980Z,15.54
2022-09-02T03:08:10.798Z,15.53
2022-09-02T03:10:44.977Z,15.47
2022-09-02T03:13:12.083Z,15.49
2022-09-02T03:15:46.022Z,15.49
2022-09-02T03:18:12.835Z,15.52
2022-09-02T03:20:40.403Z,15.51
2022-09-02T03:23:13.986Z,15.45
2022-09-02T03:25:49.961Z,15.42
2022-09-02T03:28:23.979Z,15.38
2022-09-02T03:31:04.177Z,15.32
2022-09-02T03:33:37.974Z,15.31
2022-09-02T03:36:10.964Z,15.29
2022-09-02T03:38:37.641Z,15.32
2022-09-02T03:41:10.961Z,15.31
2022-09-02T03:43:37.855Z,15.34
2022-09-02T03:46:12.020Z,15.34
2022-09-02T03:48:44.977Z,15.33
2022-09-02T03:51:12.508Z,15.29
2022-09-02T03:53:45.967Z,15.25
2022-09-02T03:56:15.545Z,15.24
2022-09-02T03:58:50.997Z,15.22
2022-09-02T04:01:23.743Z,15.20
2022-09-02T04:03:56.974Z,15.18
2022-09-02T04:06:26.221Z,15.16
2022-09-02T04:09:05.968Z,15.21
2022-09-02T04:11:32.922Z,15.19
2022-09-02T04:14:05.959Z,15.20
2022-09-02T04:16:39.968Z,15.18
2022-09-02T04:19:08.648Z,15.19
2022-09-02T04:21:38.271Z,15.15
2022-09-02T04:24:15.977Z,15.16
2022-09-02T04:26:48.972Z,15.11
2022-09-02T04:29:35.968Z,15.11
2022-09-02T04:32:09.958Z,15.09
2022-09-02T04:34:36.626Z,15.08
2022-09-02T04:37:09.954Z,15.03
2022-09-02T04:39:42.962Z,15.04
2022-09-02T04:42:09.663Z,15.04
2022-09-02T04:44:42.938Z,15.00
2022-09-02T04:47:09.596Z,14.95
2022-09-02T04:49:36.459Z,14.96
2022-09-02T04:52:09.957Z,14.93
2022-09-02T04:54:43.935Z,14.94
2022-09-02T04:57:16.959Z,14.92
2022-09-02T04:59:43.795Z,14.86
2022-09-02T05:02:19.010Z,14.83
2022-09-02T05:04:46.301Z,14.80
2022-09-02T05:07:19.936Z,14.84
2022-09-02T05:09:46.639Z,14.88
2022-09-02T05:12:24.938Z,14.91
2022-09-02T05:14:51.769Z,14.92
2022-09-02T05:17:25.932Z,14.95
2022-09-02T05:19:53.278Z,14.99
2022-09-02T05:22:26.939Z,14.99
2022-09-02T05:24:53.994Z,14.98
2022-09-02T05:27:26.958Z,14.97
2022-09-02T05:30:05.933Z,14.90
2022-09-02T05:32:45.931Z,14.87
2022-09-02T05:35:25.949Z,14.81
2022-09-02T05:37:53.828Z,14.85
2022-09-02T05:40:29.943Z,14.83
2022-09-02T05:42:56.576Z,14.81
2022-09-02T05:45:30.935Z,14.65
2022-09-02T05:47:57.647Z,14.68
2022-09-02T05:50:31.925Z,14.67
2022-09-02T05:52:58.686Z,14.62
2022-09-02T05:55:31.953Z,14.72
2022-09-02T05:57:59.333Z,14.71
2022-09-02T06:00:32.930Z,14.73
2022-09-02T06:02:59.748Z,14.76
2022-09-02T06:05:33.936Z,14.75
2022-09-02T06:08:06.922Z,14.96
2022-09-02T06:10:40.919Z,14.97
2022-09-02T06:13:08.148Z,14.98
2022-09-02T06:15:40.964Z,15.11
2022-09-02T06:18:07.683Z,15.14
2022-09-02T06:20:41.934Z,15.18
2022-09-02T06:23:08.839Z,15.16
2022-09-02T06:25:46.921Z,15.20
2022-09-02T06:28:15.105Z,15.12
2022-09-02T06:30:54.962Z,15.19
2022-09-02T06:33:21.814Z,15.20
2022-09-02T06:35:50.059Z,15.31
2022-09-02T06:38:23.902Z,15.33
2022-09-02T06:40:59.922Z,15.39
2022-09-02T06:43:41.292Z,15.43
2022-09-02T06:46:19.524Z,15.51
2022-09-02T06:48:52.925Z,15.49
2022-09-02T06:51:32.038Z,15.55
2022-09-02T06:54:06.939Z,15.68
2022-09-02T06:56:34.701Z,15.68
2022-09-02T06:59:08.924Z,15.68
2022-09-02T07:01:37.002Z,15.73
2022-09-02T07:04:29.946Z,15.78
2022-09-02T07:06:57.838Z,15.88
2022-09-02T07:09:39.938Z,15.93
2022-09-02T07:12:06.815Z,15.84
2022-09-02T07:14:45.916Z,15.89
2022-09-02T07:17:23.906Z,15.95
2022-09-02T07:19:51.200Z,16.00
2022-09-02T07:22:24.923Z,16.04
2022-09-02T07:24:51.746Z,16.01
2022-09-02T07:27:20.330Z,15.99
2022-09-02T07:29:55.905Z,16.08
2022-09-02T07:32:29.028Z,16.16
2022-09-02T07:35:01.964Z,16.20
2022-09-02T07:37:28.608Z,16.27
2022-09-02T07:40:01.912Z,16.39
2022-09-02T07:42:34.961Z,16.42
2022-09-02T07:45:07.916Z,16.47
2022-09-02T07:47:34.670Z,16.49
2022-09-02T07:50:20.767Z,16.38
2022-09-02T07:52:50.532Z,16.40
2022-09-02T07:55:23.906Z,16.52
2022-09-02T07:57:51.208Z,16.57
2022-09-02T08:00:26.883Z,16.50
2022-09-02T08:03:00.996Z,16.59
2022-09-02T08:05:35.922Z,16.70
2022-09-02T08:08:04.189Z,16.72
2022-09-02T08:10:42.895Z,16.77
2022-09-02T08:13:16.900Z,16.82
2022-09-02T08:15:44.723Z,16.89
2022-09-02T08:18:21.277Z,16.96
2022-09-02T08:20:49.078Z,17.01
2022-09-02T08:23:36.052Z,17.09
2022-09-02T08:26:11.896Z,17.15
2022-09-02T08:28:45.890Z,17.19
2022-09-02T08:31:32.957Z,17.24
2022-09-02T08:34:00.376Z,17.34
2022-09-02T08:36:34.905Z,17.44
2022-09-02T08:39:09.896Z,17.52
2022-09-02T08:41:48.774Z,17.60
2022-09-02T08:44:27.906Z,17.67
2022-09-02T08:46:59.388Z,17.72
2022-09-02T08:49:39.885Z,17.76
2022-09-02T08:52:06.877Z,17.84
2022-09-02T08:55:06.907Z,17.93
2022-09-02T08:57:33.691Z,17.94
2022-09-02T09:00:08.878Z,18.00
2022-09-02T09:03:02.909Z,18.06
2022-09-02T09:06:06.925Z,18.14
2022-09-02T09:08:53.519Z,18.22
2022-09-02T09:11:58.926Z,18.33
2022-09-02T09:15:08.967Z,18.38
2022-09-02T09:18:11.937Z,18.45
2022-09-02T09:20:59.404Z,18.54
2022-09-02T09:23:53.919Z,18.64
2022-09-02T09:26:48.891Z,18.72
2022-09-02T09:29:55.925Z,18.82
2022-09-02T09:32:56.892Z,18.94
2022-09-02T09:35:49.990Z,19.12
2022-09-02T09:38:44.886Z,19.15
2022-09-02T09:41:32.209Z,19.27
2022-09-02T09:44:47.939Z,19.41
2022-09-02T09:47:41.883Z,19.48
2022-09-02T09:50:29.126Z,19.56
2022-09-02T09:53:38.892Z,19.68
2022-09-02T09:56:29.296Z,19.69
2022-09-02T09:59:56.893Z,19.85
2022-09-02T10:03:02.926Z,19.94
2022-09-02T10:05:55.264Z,20.03
2022-09-02T10:08:59.162Z,20.09
2022-09-02T10:11:56.615Z,20.18
2022-09-02T10:14:55.909Z,20.19
2022-09-02T10:17:58.365Z,20.30
2022-09-02T10:21:15.052Z,20.38
2022-09-02T10:24:21.265Z,20.45
2022-09-02T10:27:21.899Z,20.36
2022-09-02T10:30:31.886Z,20.51
2022-09-02T10:33:40.905Z,20.65
2022-09-02T10:36:44.925Z,20.78
2022-09-02T10:39:57.483Z,20.85
2022-09-02T10:42:50.886Z,20.89
2022-09-02T10:45:40.876Z,21.02
2022-09-02T10:48:53.893Z,21.08
2022-09-02T10:52:24.863Z,20.95
2022-09-02T10:55:26.994Z,21.03
2022-09-02T10:58:50.926Z,21.06
2022-09-02T11:02:02.873Z,21.26
2022-09-02T11:05:22.870Z,21.37
2022-09-02T11:08:28.328Z,21.37
2022-09-02T11:11:07.190Z,21.39
2022-09-02T11:13:58.942Z,21.64
2022-09-02T11:17:01.972Z,21.79
2022-09-02T11:19:55.885Z,21.83
2022-09-02T11:22:40.179Z,21.98
2022-09-02T11:25:34.865Z,22.03
2022-09-02T11:28:21.364Z,22.20
2022-09-02T11:31:18.852Z,22.32
2022-09-02T11:33:58.939Z,22.45
2022-09-02T11:36:26.396Z,22.58
2022-09-02T11:39:36.613Z,22.63
2022-09-02T11:43:10.864Z,22.60
2022-09-02T11:45:51.929Z,22.82
2022-09-02T11:48:41.174Z,22.84
2022-09-02T11:51:48.854Z,22.99
2022-09-02T11:54:19.473Z,23.16
2022-09-02T11:56:57.851Z,23.34
2022-09-02T11:59:59.889Z,23.39
2022-09-02T12:02:38.892Z,23.43
2022-09-02T12:05:31.058Z,23.55
2022-09-02T12:08:05.862Z,23.71
2022-09-02T12:10:51.892Z,23.90
2022-09-02T12:13:41.175Z,24.03
2022-09-02T12:16:27.915Z,24.11
2022-09-02T12:19:00.889Z,24.17
2022-09-02T12:21:36.871Z,24.24
2022-09-02T12:24:17.847Z,24.33
2022-09-02T12:26:50.852Z,24.43
2022-09-02T12:29:18.398Z,24.36
2022-09-02T12:32:00.005Z,24.54
2022-09-02T12:34:28.713Z,24.57
2022-09-02T12:37:03.861Z,24.79
2022-09-02T12:39:41.862Z,24.77
2022-09-02T12:42:17.874Z,25.00
2022-09-02T12:45:30.865Z,25.15
2022-09-02T12:48:17.861Z,25.35
2022-09-02T12:50:50.895Z,25.46
2022-09-02T12:53:32.451Z,25.47
2022-09-02T12:56:19.844Z,25.65
2022-09-02T12:59:01.597Z,25.78
2022-09-02T13:01:53.995Z,25.81
2022-09-02T13:04:59.881Z,25.80
2022-09-02T13:08:12.862Z,25.28
2022-09-02T13:11:26.344Z,25.12
2022-09-02T13:14:17.849Z,25.38
2022-09-02T13:16:53.994Z,25.76
2022-09-02T13:19:41.881Z,25.96
2022-09-02T13:22:35.864Z,26.21
2022-09-02T13:25:49.969Z,26.29
2022-09-02T13:28:52.000Z,26.46
2022-09-02T13:31:36.870Z,26.49
2022-09-02T13:34:08.211Z,26.60
2022-09-02T13:36:43.878Z,26.68
2022-09-02T13:39:24.253Z,26.83
2022-09-02T13:41:57.841Z,26.81
2022-09-02T13:44:31.769Z,26.91
2022-09-02T13:47:22.938Z,26.88
2022-09-02T13:49:52.010Z,26.96
2022-09-02T13:53:01.149Z,26.79
2022-09-02T13:55:17.059Z,26.89
2022-09-02T13:58:05.842Z,26.86
2022-09-02T14:00:42.959Z,26.63
2022-09-02T14:03:28.201Z,26.81
2022-09-02T14:05:57.570Z,26.79
2022-09-02T14:08:35.838Z,26.93
2022-09-02T14:11:08.398Z,26.95
2022-09-02T14:13:42.849Z,26.89
2022-09-02T14:16:40.956Z,26.95
2022-09-02T14:19:09.049Z,27.06
2022-09-02T14:21:44.855Z,27.03
2022-09-02T14:24:22.842Z,27.15
2022-09-02T14:26:53.111Z,27.16
2022-09-02T14:29:27.860Z,27.13
2022-09-02T14:32:22.855Z,27.04
2022-09-02T14:35:08.618Z,27.03
2022-09-02T14:37:58.841Z,27.11
2022-09-02T14:40:44.842Z,27.08
2022-09-02T14:43:17.527Z,26.93
2022-09-02T14:45:56.912Z,27.00
2022-09-02T14:48:26.998Z,26.90
2022-09-02T14:51:09.857Z,26.86
2022-09-02T14:53:37.703Z,26.89
2022-09-02T14:56:12.890Z,26.89
2022-09-02T14:58:39.638Z,26.88
2022-09-02T15:01:14.954Z,26.86
2022-09-02T15:03:50.848Z,26.88
2022-09-02T15:06:18.615Z,26.85
2022-09-02T15:08:51.860Z,26.93
2022-09-02T15:11:21.229Z,26.92
2022-09-02T15:13:54.879Z,26.73
2022-09-02T15:16:27.896Z,26.74
2022-09-02T15:19:01.869Z,26.66
2022-09-02T15:21:28.677Z,26.57
2022-09-02T15:24:01.852Z,26.42
2022-09-02T15:26:36.838Z,26.41
2022-09-02T15:29:10.865Z,26.40
2022-09-02T15:31:43.974Z,26.34
2022-09-02T15:34:24.858Z,26.26
2022-09-02T15:36:58.847Z,26.21
2022-09-02T15:39:26.204Z,26.11
2022-09-02T15:42:01.848Z,26.04
2022-09-02T15:44:29.398Z,25.95
2022-09-02T15:47:03.856Z,25.88
2022-09-02T15:49:37.062Z,25.74
2022-09-02T15:52:10.874Z,25.69
2022-09-02T15:54:37.577Z,25.55
2022-09-02T15:57:10.836Z,25.37
2022-09-02T15:59:43.891Z,25.25
2022-09-02T16:02:10.593Z,25.13
2022-09-02T16:04:38.507Z,24.93
2022-09-02T16:07:16.756Z,24.77
2022-09-02T16:09:50.870Z,24.59
2022-09-02T16:12:24.832Z,24.43
2022-09-02T16:14:57.860Z,24.28
2022-09-02T16:17:24.614Z,24.11
2022-09-02T16:19:57.937Z,23.96
2022-09-02T16:22:24.649Z,23.81
2022-09-02T16:24:57.857Z,23.69
2022-09-02T16:27:49.840Z,23.49
2022-09-02T16:30:30.161Z,23.37
2022-09-02T16:33:11.851Z,23.26
2022-09-02T16:35:39.295Z,23.19
2022-09-02T16:38:12.836Z,23.13
2022-09-02T16:40:39.579Z,23.02
2022-09-02T16:43:12.846Z,22.97
2022-09-02T16:45:45.914Z,22.85
2022-09-02T16:48:21.441Z,22.66
2022-09-02T16:50:52.300Z,22.46
2022-09-02T16:53:25.892Z,22.39
2022-09-02T16:55:52.642Z,22.28
2022-09-02T16:58:25.864Z,22.17
2022-09-02T17:00:53.132Z,22.03
2022-09-02T17:03:26.848Z,21.91
2022-09-02T17:05:59.851Z,21.81
2022-09-02T17:08:26.556Z,21.72
2022-09-02T17:11:18.920Z,21.60
2022-09-02T17:14:15.241Z,21.46
2022-09-02T17:16:48.904Z,21.39
2022-09-02T17:19:32.079Z,21.26
2022-09-02T17:21:59.509Z,21.20
2022-09-02T17:24:37.859Z,21.12
2022-09-02T17:27:04.834Z,21.10
2022-09-02T17:29:55.234Z,21.00
2022-09-02T17:32:35.903Z,20.89
2022-09-02T17:35:08.861Z,20.81
2022-09-02T17:37:43.868Z,20.73
2022-09-02T17:40:33.562Z,20.61
2022-09-02T17:43:06.817Z,20.54
2022-09-02T17:45:39.898Z,20.46
2022-09-02T17:48:32.279Z,20.40
2022-09-02T17:51:00.877Z,20.34
2022-09-02T17:53:29.507Z,20.31
2022-09-02T17:56:11.837Z,20.33
2022-09-02T17:58:50.884Z,20.27
2022-09-02T18:01:31.062Z,20.25
2022-09-02T18:04:25.842Z,20.22
2022-09-02T18:06:58.981Z,20.15
2022-09-02T18:09:35.277Z,20.14
2022-09-02T18:12:02.251Z,20.11
2022-09-02T18:14:57.882Z,20.05
2022-09-02T18:18:11.843Z,20.01
2022-09-02T18:20:44.251Z,19.99
2022-09-02T18:23:42.872Z,19.93
2022-09-02T18:26:54.871Z,19.90
2022-09-02T18:29:58.612Z,19.84
2022-09-02T18:33:26.846Z,19.79
2022-09-02T18:36:05.910Z,19.73
2022-09-02T18:39:06.865Z,19.68
2022-09-02T18:42:18.016Z,19.64
2022-09-02T18:45:00.043Z,19.59
2022-09-02T18:47:38.821Z,19.53
2022-09-02T18:50:07.167Z,19.48
2022-09-02T18:52:43.060Z,19.45
2022-09-02T18:55:13.921Z,19.38
2022-09-02T18:58:04.847Z,19.38
2022-09-02T19:00:47.950Z,19.34
2022-09-02T19:03:14.932Z,19.27
2022-09-02T19:05:48.856Z,19.24
2022-09-02T19:08:33.027Z,19.23
2022-09-02T19:11:16.815Z,19.20
2022-09-02T19:13:57.011Z,19.17
2022-09-02T19:16:33.175Z,19.13
2022-09-02T19:19:06.830Z,19.07
2022-09-02T19:21:48.164Z,19.03
2022-09-02T19:24:28.873Z,19.01
2022-09-02T19:27:20.241Z,18.95
2022-09-02T19:29:57.819Z,18.91
2022-09-02T19:32:34.074Z,18.88
2022-09-02T19:35:11.985Z,18.88
2022-09-02T19:37:44.700Z,18.85
2022-09-02T19:40:18.881Z,18.79
2022-09-02T19:42:51.817Z,18.79
2022-09-02T19:45:18.672Z,18.78
2022-09-02T19:48:17.004Z,18.74
2022-09-02T19:50:42.205Z,18.70
2022-09-02T19:53:34.816Z,18.68
2022-09-02T19:56:08.031Z,18.61
2022-09-02T19:58:36.364Z,18.59
2022-09-02T20:01:13.025Z,18.55
2022-09-02T20:03:46.836Z,18.52
2022-09-02T20:06:13.622Z,18.56
2022-09-02T20:08:46.827Z,18.50
2022-09-02T20:11:13.782Z,18.46
2022-09-02T20:13:49.894Z,18.44
2022-09-02T20:16:22.716Z,18.39
2022-09-02T20:18:58.902Z,18.34
2022-09-02T20:21:33.799Z,18.33
2022-09-02T20:24:14.819Z,18.28
2022-09-02T20:27:14.123Z,18.29
2022-09-02T20:29:54.920Z,18.26
2022-09-02T20:32:49.984Z,18.21
2022-09-02T20:35:40.814Z,18.23
2022-09-02T20:38:27.827Z,18.16
2022-09-02T20:41:35.890Z,18.14
2022-09-02T20:44:24.083Z,18.12
2022-09-02T20:47:00.939Z,18.09
2022-09-02T20:49:36.775Z,18.12
2022-09-02T20:52:25.903Z,18.12
2022-09-02T20:55:02.668Z,18.07
2022-09-02T20:57:56.785Z,18.05
2022-09-02T21:00:29.861Z,18.04
2022-09-02T21:03:06.423Z,18.03
2022-09-02T21:05:43.877Z,18.04
2022-09-02T21:08:22.288Z,18.00
2022-09-02T21:11:00.790Z,18.00
2022-09-02T21:13:40.295Z,17.98
2022-09-02T21:16:22.853Z,17.95
2022-09-02T21:19:23.828Z,17.94
2022-09-02T21:22:10.047Z,17.94
2022-09-02T21:25:05.862Z,17.89
2022-09-02T21:27:51.806Z,17.89
2022-09-02T21:30:22.057Z,17.85
2022-09-02T21:33:12.837Z,17.85
2022-09-02T21:35:51.541Z,17.85
2022-09-02T21:38:51.802Z,17.84
2022-09-02T21:41:36.647Z,17.85
2022-09-02T21:44:24.800Z,17.77
2022-09-02T21:47:34.848Z,17.77
2022-09-02T21:50:24.863Z,17.71
2022-09-02T21:53:23.989Z,17.69
2022-09-02T21:56:05.773Z,17.69
2022-09-02T21:59:11.809Z,17.71
2022-09-02T22:02:03.805Z,17.70
2022-09-02T22:04:47.834Z,17.67
2022-09-02T22:07:39.805Z,17.64
2022-09-02T22:10:19.846Z,17.57
2022-09-02T22:12:57.409Z,17.64
2022-09-02T22:16:07.393Z,17.63
2022-09-02T22:19:13.135Z,17.60
2022-09-02T22:21:49.587Z,17.61
2022-09-02T22:24:26.813Z,17.66
2022-09-02T22:26:58.796Z,17.62
2022-09-02T22:29:42.786Z,17.61
2022-09-02T22:32:33.868Z,17.57
2022-09-02T22:35:16.804Z,17.55
2022-09-02T22:38:34.832Z,17.57
2022-09-02T22:41:26.407Z,17.56
2022-09-02T22:44:17.806Z,17.51
2022-09-02T22:47:08.405Z,17.47
2022-09-02T22:50:09.815Z,17.47
2022-09-02T22:52:54.871Z,17.38
2022-09-02T22:55:44.824Z,17.38
2022-09-02T22:58:57.795Z,17.35
2022-09-02T23:02:01.911Z,17.31
2022-09-02T23:04:46.775Z,17.30
2022-09-02T23:07:20.788Z,17.30
2022-09-02T23:09:49.046Z,17.28
2022-09-02T23:12:47.965Z,17.25
2022-09-02T23:15:58.627Z,17.21
2022-09-02T23:19:04.811Z,17.12
2022-09-02T23:22:05.799Z,17.16
2022-09-02T23:25:02.936Z,17.11
2022-09-02T23:27:50.811Z,17.03
2022-09-02T23:30:18.291Z,17.03
2022-09-02T23:33:37.773Z,16.92
2022-09-02T23:36:27.769Z,16.92
2022-09-02T23:39:13.782Z,16.83
2022-09-02T23:41:51.786Z,16.78
2022-09-02T23:44:18.431Z,16.75
2022-09-02T23:47:22.770Z,16.73
2022-09-02T23:50:23.796Z,16.70
2022-09-02T23:53:06.796Z,16.62
2022-09-02T23:56:09.772Z,16.54
2022-09-02T23:59:18.758Z,16.49
